首页
METAR-TAF:

METAR-TAF

机场 :

奥郎加巴德, 印度

纬度: 19-51-46N, 经度: 75-23-53E, 海拔: 582米

当前天气观测

该预报发布于14分钟前的00:30 UTC
风速3节,风向西转西南
温度 26°C
湿度 94%
气压 1009 hPa
能見度: 4000
散云层高于2000英尺
散云层高于2500英尺
多云层高于10000英尺
轻雾,

METAR: VAAU 170030Z 24003KT 4000 BR SCT020 SCT025 BKN100 26/25 Q1009 NOSIG

时间: 06:14 (00:44 UTC)

预报

该预报发布于1小时和44分钟前的23:00 UTC
预报有效从17日的 00点(UTC)到 17日的 09点(UTC)
风速5节,风向西转西南
能見度: 3000
散云层高于2000英尺
散云层高于10000英尺
成为
从 17日的 03点(UTC)到 17日的 05点(UTC)
风速10节,风向西转西北
能見度: 5000
散云层高于2000英尺
少量云层高于2500英尺, 塔状积云.
散云层高于10000英尺
霾,

TAF: VAAU 162300Z 1700/1709 25005KT 3000 HZ SCT020 SCT100 BECMG 1703/1705 29010KT 5000 HZ SCT020 FEW025TCU SCT100

超过4000个机场的气象观测和天气预报(METAR&TAF报告)。

可查询的气象台以黄色和红色小点在地图上表示。

将鼠标移到小点上方,可查看气象台名称。

然后点击查看天气观测和预报。

如需切换地图:点击带黑十字的绿色按钮放大地图;点击带横线的绿色按钮缩小地图;或者点击绿色箭头查看邻近地区的地图。


METAR-TAF: